LJPO weather

Public forecast

Using degrees Celsius for public forecast. Weather courtesy of forecast.io.

Closest aviation weather report (METAR) to Postojna Airfield

Closest report is Portoroz Airport, 29.5 nm (54.7 km) SW. Retrieved 2020/08/10 08:30 UTC (20 minutes ago):

LJPZ 100830Z VRB02KT CAVOK 28/19 Q1015

Closest aviation forecast (TAF) to Postojna Airfield

Closest forecast is Ljubljana Jože Pučnik Airport, 30.4 nm (56.2 km) NNE. Retrieved 2020/08/10 06:06 UTC (3 hours ago):

TAF LJLJ 100500Z 1006/1106 VRB02KT CAVOK TEMPO 1012/1018 FEW060CB PROB40 TEMPO 1012/1018 VRB15KT 5000 TSRA SCT050CB